sensor_id;sensor_type;location;lat;lon;timestamp;temperature;humidity
10133;DHT22;5106;50.926;7.080;2022-07-10T00:00:11;15.60;75.20
10133;DHT22;5106;50.926;7.080;2022-07-10T00:02:41;15.60;75.40
10133;DHT22;5106;50.926;7.080;2022-07-10T00:05:09;15.60;75.60
10133;DHT22;5106;50.926;7.080;2022-07-10T00:07:35;15.60;75.60
10133;DHT22;5106;50.926;7.080;2022-07-10T00:10:01;15.50;75.30
10133;DHT22;5106;50.926;7.080;2022-07-10T00:12:27;15.40;75.80
10133;DHT22;5106;50.926;7.080;2022-07-10T00:14:53;15.40;75.60
10133;DHT22;5106;50.926;7.080;2022-07-10T00:17:18;15.40;75.80
10133;DHT22;5106;50.926;7.080;2022-07-10T00:19:44;15.40;75.80
10133;DHT22;5106;50.926;7.080;2022-07-10T00:22:09;15.30;75.80
10133;DHT22;5106;50.926;7.080;2022-07-10T00:24:35;15.30;75.80
10133;DHT22;5106;50.926;7.080;2022-07-10T00:27:01;15.30;75.70
10133;DHT22;5106;50.926;7.080;2022-07-10T00:29:26;15.20;76.00
10133;DHT22;5106;50.926;7.080;2022-07-10T00:31:52;15.20;76.00
10133;DHT22;5106;50.926;7.080;2022-07-10T00:34:18;15.20;75.90
10133;DHT22;5106;50.926;7.080;2022-07-10T00:36:43;15.20;75.90
10133;DHT22;5106;50.926;7.080;2022-07-10T00:39:10;15.10;76.00
10133;DHT22;5106;50.926;7.080;2022-07-10T00:41:35;15.10;76.10
10133;DHT22;5106;50.926;7.080;2022-07-10T00:44:02;15.00;76.10
10133;DHT22;5106;50.926;7.080;2022-07-10T00:46:29;15.00;76.20
10133;DHT22;5106;50.926;7.080;2022-07-10T00:48:55;15.00;76.10
10133;DHT22;5106;50.926;7.080;2022-07-10T00:51:24;14.90;76.40
10133;DHT22;5106;50.926;7.080;2022-07-10T00:53:50;14.90;76.40
10133;DHT22;5106;50.926;7.080;2022-07-10T00:56:18;14.90;76.50
10133;DHT22;5106;50.926;7.080;2022-07-10T00:58:46;14.90;76.50
10133;DHT22;5106;50.926;7.080;2022-07-10T01:01:14;14.80;76.40
10133;DHT22;5106;50.926;7.080;2022-07-10T01:03:40;14.80;76.60
10133;DHT22;5106;50.926;7.080;2022-07-10T01:06:06;14.70;76.40
10133;DHT22;5106;50.926;7.080;2022-07-10T01:08:32;14.70;76.50
10133;DHT22;5106;50.926;7.080;2022-07-10T01:10:58;14.70;76.70
10133;DHT22;5106;50.926;7.080;2022-07-10T01:13:24;14.70;76.90
10133;DHT22;5106;50.926;7.080;2022-07-10T01:15:50;14.70;76.90
10133;DHT22;5106;50.926;7.080;2022-07-10T01:18:16;14.70;77.10
10133;DHT22;5106;50.926;7.080;2022-07-10T01:20:42;14.70;77.20
10133;DHT22;5106;50.926;7.080;2022-07-10T01:23:07;14.70;77.10
10133;DHT22;5106;50.926;7.080;2022-07-10T01:25:33;14.70;77.10
10133;DHT22;5106;50.926;7.080;2022-07-10T01:27:59;14.60;77.00
10133;DHT22;5106;50.926;7.080;2022-07-10T01:30:25;14.60;77.00
10133;DHT22;5106;50.926;7.080;2022-07-10T01:32:51;14.60;77.00
10133;DHT22;5106;50.926;7.080;2022-07-10T01:35:20;14.60;77.10
10133;DHT22;5106;50.926;7.080;2022-07-10T01:37:46;14.50;77.10
10133;DHT22;5106;50.926;7.080;2022-07-10T01:40:12;14.50;77.00
10133;DHT22;5106;50.926;7.080;2022-07-10T01:42:38;14.40;77.30
10133;DHT22;5106;50.926;7.080;2022-07-10T01:45:08;14.40;77.80
10133;DHT22;5106;50.926;7.080;2022-07-10T01:47:34;14.40;77.90
10133;DHT22;5106;50.926;7.080;2022-07-10T01:49:59;14.30;77.30
10133;DHT22;5106;50.926;7.080;2022-07-10T01:52:25;14.30;77.60
10133;DHT22;5106;50.926;7.080;2022-07-10T01:54:50;14.20;78.10
10133;DHT22;5106;50.926;7.080;2022-07-10T01:57:17;14.20;78.20
10133;DHT22;5106;50.926;7.080;2022-07-10T01:59:43;14.20;77.90
10133;DHT22;5106;50.926;7.080;2022-07-10T02:02:09;14.20;78.30
10133;DHT22;5106;50.926;7.080;2022-07-10T02:04:34;14.10;78.50
10133;DHT22;5106;50.926;7.080;2022-07-10T02:07:11;14.10;78.80
10133;DHT22;5106;50.926;7.080;2022-07-10T02:09:37;14.10;78.90
10133;DHT22;5106;50.926;7.080;2022-07-10T02:12:05;14.10;78.90
10133;DHT22;5106;50.926;7.080;2022-07-10T02:14:31;14.10;78.90
10133;DHT22;5106;50.926;7.080;2022-07-10T02:16:56;14.10;79.10
10133;DHT22;5106;50.926;7.080;2022-07-10T02:19:22;14.10;79.10
10133;DHT22;5106;50.926;7.080;2022-07-10T02:21:48;14.10;79.00
10133;DHT22;5106;50.926;7.080;2022-07-10T02:24:13;14.00;79.20
10133;DHT22;5106;50.926;7.080;2022-07-10T02:26:39;14.00;79.50
10133;DHT22;5106;50.926;7.080;2022-07-10T02:29:05;14.00;79.50
10133;DHT22;5106;50.926;7.080;2022-07-10T02:31:30;14.00;79.40
10133;DHT22;5106;50.926;7.080;2022-07-10T02:33:57;14.00;79.40
10133;DHT22;5106;50.926;7.080;2022-07-10T02:36:23;14.00;79.50
10133;DHT22;5106;50.926;7.080;2022-07-10T02:38:49;14.10;79.20
10133;DHT22;5106;50.926;7.080;2022-07-10T02:41:14;14.10;79.10
10133;DHT22;5106;50.926;7.080;2022-07-10T02:43:40;14.20;79.00
10133;DHT22;5106;50.926;7.080;2022-07-10T02:46:05;14.20;78.90
10133;DHT22;5106;50.926;7.080;2022-07-10T02:48:31;14.20;79.00
10133;DHT22;5106;50.926;7.080;2022-07-10T02:50:57;14.20;79.20
10133;DHT22;5106;50.926;7.080;2022-07-10T02:53:22;14.20;79.10
10133;DHT22;5106;50.926;7.080;2022-07-10T02:55:48;14.20;79.20
10133;DHT22;5106;50.926;7.080;2022-07-10T02:58:13;14.20;79.10
10133;DHT22;5106;50.926;7.080;2022-07-10T03:00:41;14.10;79.20
10133;DHT22;5106;50.926;7.080;2022-07-10T03:03:07;14.10;79.40
10133;DHT22;5106;50.926;7.080;2022-07-10T03:05:33;14.10;79.30
10133;DHT22;5106;50.926;7.080;2022-07-10T03:07:59;14.10;79.30
10133;DHT22;5106;50.926;7.080;2022-07-10T03:10:24;14.10;79.20
10133;DHT22;5106;50.926;7.080;2022-07-10T03:12:50;14.10;79.20
10133;DHT22;5106;50.926;7.080;2022-07-10T03:15:16;14.10;79.40
10133;DHT22;5106;50.926;7.080;2022-07-10T03:17:41;14.10;79.30
10133;DHT22;5106;50.926;7.080;2022-07-10T03:20:07;14.10;79.60
10133;DHT22;5106;50.926;7.080;2022-07-10T03:22:34;14.10;80.00
10133;DHT22;5106;50.926;7.080;2022-07-10T03:25:00;14.10;79.80
10133;DHT22;5106;50.926;7.080;2022-07-10T03:27:25;14.10;79.80
10133;DHT22;5106;50.926;7.080;2022-07-10T03:29:51;14.10;79.80
10133;DHT22;5106;50.926;7.080;2022-07-10T03:32:17;14.10;79.90
10133;DHT22;5106;50.926;7.080;2022-07-10T03:34:42;14.10;80.10
10133;DHT22;5106;50.926;7.080;2022-07-10T03:37:08;14.10;79.90
10133;DHT22;5106;50.926;7.080;2022-07-10T03:39:34;14.20;79.90
10133;DHT22;5106;50.926;7.080;2022-07-10T03:41:59;14.20;79.70
10133;DHT22;5106;50.926;7.080;2022-07-10T03:44:25;14.20;79.90
10133;DHT22;5106;50.926;7.080;2022-07-10T03:46:51;14.30;79.60
10133;DHT22;5106;50.926;7.080;2022-07-10T03:49:16;14.30;79.70
10133;DHT22;5106;50.926;7.080;2022-07-10T03:51:42;14.30;79.80
10133;DHT22;5106;50.926;7.080;2022-07-10T03:54:08;14.20;79.80
10133;DHT22;5106;50.926;7.080;2022-07-10T03:56:33;14.20;79.80
10133;DHT22;5106;50.926;7.080;2022-07-10T03:59:17;14.20;80.00
10133;DHT22;5106;50.926;7.080;2022-07-10T04:01:43;14.20;80.00
10133;DHT22;5106;50.926;7.080;2022-07-10T04:04:09;14.20;80.00
10133;DHT22;5106;50.926;7.080;2022-07-10T04:06:34;14.10;80.00
10133;DHT22;5106;50.926;7.080;2022-07-10T04:09:03;14.10;80.20
10133;DHT22;5106;50.926;7.080;2022-07-10T04:11:29;14.10;80.20
10133;DHT22;5106;50.926;7.080;2022-07-10T04:13:55;14.10;80.30
10133;DHT22;5106;50.926;7.080;2022-07-10T04:16:20;14.10;80.30
10133;DHT22;5106;50.926;7.080;2022-07-10T04:18:46;14.10;80.20
10133;DHT22;5106;50.926;7.080;2022-07-10T04:21:12;14.10;80.40
10133;DHT22;5106;50.926;7.080;2022-07-10T04:23:37;14.10;80.30
10133;DHT22;5106;50.926;7.080;2022-07-10T04:26:03;14.10;80.40
10133;DHT22;5106;50.926;7.080;2022-07-10T04:28:29;14.10;80.40
10133;DHT22;5106;50.926;7.080;2022-07-10T04:30:54;14.10;80.70
10133;DHT22;5106;50.926;7.080;2022-07-10T04:33:20;14.10;80.70
10133;DHT22;5106;50.926;7.080;2022-07-10T04:35:45;14.10;80.90
10133;DHT22;5106;50.926;7.080;2022-07-10T04:38:11;14.10;81.20
10133;DHT22;5106;50.926;7.080;2022-07-10T04:40:43;14.00;81.30
10133;DHT22;5106;50.926;7.080;2022-07-10T04:43:08;14.10;81.50
10133;DHT22;5106;50.926;7.080;2022-07-10T04:45:35;14.10;81.50
10133;DHT22;5106;50.926;7.080;2022-07-10T04:48:06;14.10;81.40
10133;DHT22;5106;50.926;7.080;2022-07-10T04:50:32;14.10;81.40
10133;DHT22;5106;50.926;7.080;2022-07-10T04:52:58;14.20;81.40
10133;DHT22;5106;50.926;7.080;2022-07-10T04:55:23;14.20;81.40
10133;DHT22;5106;50.926;7.080;2022-07-10T04:57:49;14.20;81.20
10133;DHT22;5106;50.926;7.080;2022-07-10T05:00:15;14.30;81.10
10133;DHT22;5106;50.926;7.080;2022-07-10T05:02:41;14.30;81.10
10133;DHT22;5106;50.926;7.080;2022-07-10T05:05:08;14.30;81.10
10133;DHT22;5106;50.926;7.080;2022-07-10T05:07:34;14.40;81.10
10133;DHT22;5106;50.926;7.080;2022-07-10T05:10:00;14.40;81.10
10133;DHT22;5106;50.926;7.080;2022-07-10T05:12:25;14.50;80.90
10133;DHT22;5106;50.926;7.080;2022-07-10T05:14:51;14.50;80.80
10133;DHT22;5106;50.926;7.080;2022-07-10T05:17:17;14.60;80.40
10133;DHT22;5106;50.926;7.080;2022-07-10T05:19:43;14.70;80.10
10133;DHT22;5106;50.926;7.080;2022-07-10T05:22:08;14.70;79.80
10133;DHT22;5106;50.926;7.080;2022-07-10T05:24:35;14.70;79.70
10133;DHT22;5106;50.926;7.080;2022-07-10T05:27:01;14.80;79.90
10133;DHT22;5106;50.926;7.080;2022-07-10T05:29:27;14.80;79.50
10133;DHT22;5106;50.926;7.080;2022-07-10T05:31:52;14.80;79.60
10133;DHT22;5106;50.926;7.080;2022-07-10T05:34:18;14.80;79.80
10133;DHT22;5106;50.926;7.080;2022-07-10T05:36:44;14.90;79.90
10133;DHT22;5106;50.926;7.080;2022-07-10T05:39:10;14.90;79.50
10133;DHT22;5106;50.926;7.080;2022-07-10T05:41:36;14.90;79.20
10133;DHT22;5106;50.926;7.080;2022-07-10T05:44:02;15.00;79.30
10133;DHT22;5106;50.926;7.080;2022-07-10T05:46:27;15.00;78.90
10133;DHT22;5106;50.926;7.080;2022-07-10T05:48:53;15.00;78.80
10133;DHT22;5106;50.926;7.080;2022-07-10T05:51:19;15.10;78.40
10133;DHT22;5106;50.926;7.080;2022-07-10T05:53:44;15.10;78.40
10133;DHT22;5106;50.926;7.080;2022-07-10T05:56:10;15.10;78.80
10133;DHT22;5106;50.926;7.080;2022-07-10T05:58:35;15.10;79.30
10133;DHT22;5106;50.926;7.080;2022-07-10T06:01:01;15.20;79.10
10133;DHT22;5106;50.926;7.080;2022-07-10T06:03:27;15.30;78.00
10133;DHT22;5106;50.926;7.080;2022-07-10T06:05:52;15.40;77.90
10133;DHT22;5106;50.926;7.080;2022-07-10T06:08:18;15.40;78.20
10133;DHT22;5106;50.926;7.080;2022-07-10T06:10:44;15.50;77.10
10133;DHT22;5106;50.926;7.080;2022-07-10T06:13:10;15.50;77.50
10133;DHT22;5106;50.926;7.080;2022-07-10T06:15:36;15.60;78.30
10133;DHT22;5106;50.926;7.080;2022-07-10T06:18:02;15.60;77.60
10133;DHT22;5106;50.926;7.080;2022-07-10T06:20:28;15.70;77.50
10133;DHT22;5106;50.926;7.080;2022-07-10T06:22:54;15.80;76.10
10133;DHT22;5106;50.926;7.080;2022-07-10T06:25:19;15.90;75.10
10133;DHT22;5106;50.926;7.080;2022-07-10T06:27:45;16.00;75.20
10133;DHT22;5106;50.926;7.080;2022-07-10T06:30:11;16.00;74.80
10133;DHT22;5106;50.926;7.080;2022-07-10T06:32:37;16.00;74.30
10133;DHT22;5106;50.926;7.080;2022-07-10T06:35:03;16.00;74.30
10133;DHT22;5106;50.926;7.080;2022-07-10T06:37:30;16.00;75.20
10133;DHT22;5106;50.926;7.080;2022-07-10T06:39:56;16.00;75.40
10133;DHT22;5106;50.926;7.080;2022-07-10T06:42:21;16.00;75.00
10133;DHT22;5106;50.926;7.080;2022-07-10T06:44:47;16.00;74.40
10133;DHT22;5106;50.926;7.080;2022-07-10T06:47:16;16.00;74.30
10133;DHT22;5106;50.926;7.080;2022-07-10T06:50:05;16.00;75.00
10133;DHT22;5106;50.926;7.080;2022-07-10T06:52:35;16.00;75.10
10133;DHT22;5106;50.926;7.080;2022-07-10T06:55:02;16.00;75.10
10133;DHT22;5106;50.926;7.080;2022-07-10T06:57:28;16.00;74.60
10133;DHT22;5106;50.926;7.080;2022-07-10T06:59:54;16.10;74.40
10133;DHT22;5106;50.926;7.080;2022-07-10T07:02:19;16.00;73.60
10133;DHT22;5106;50.926;7.080;2022-07-10T07:04:45;16.00;74.10
10133;DHT22;5106;50.926;7.080;2022-07-10T07:07:15;16.00;74.70
10133;DHT22;5106;50.926;7.080;2022-07-10T07:09:41;16.00;74.70
10133;DHT22;5106;50.926;7.080;2022-07-10T07:12:08;16.10;74.10
10133;DHT22;5106;50.926;7.080;2022-07-10T07:14:34;16.20;72.80
10133;DHT22;5106;50.926;7.080;2022-07-10T07:17:01;16.30;72.30
10133;DHT22;5106;50.926;7.080;2022-07-10T07:19:30;16.30;73.00
10133;DHT22;5106;50.926;7.080;2022-07-10T07:22:14;16.40;72.90
10133;DHT22;5106;50.926;7.080;2022-07-10T07:24:58;16.50;71.50
10133;DHT22;5106;50.926;7.080;2022-07-10T07:27:23;16.60;71.10
10133;DHT22;5106;50.926;7.080;2022-07-10T07:29:49;16.70;70.70
10133;DHT22;5106;50.926;7.080;2022-07-10T07:32:15;16.70;71.40
10133;DHT22;5106;50.926;7.080;2022-07-10T07:34:40;16.70;71.40
10133;DHT22;5106;50.926;7.080;2022-07-10T07:37:06;16.70;70.90
10133;DHT22;5106;50.926;7.080;2022-07-10T07:39:31;16.70;70.30
10133;DHT22;5106;50.926;7.080;2022-07-10T07:41:59;16.70;70.50
10133;DHT22;5106;50.926;7.080;2022-07-10T07:44:24;16.60;70.40
10133;DHT22;5106;50.926;7.080;2022-07-10T07:46:50;16.60;70.60
10133;DHT22;5106;50.926;7.080;2022-07-10T07:49:15;16.60;71.40
10133;DHT22;5106;50.926;7.080;2022-07-10T07:51:41;16.60;70.80
10133;DHT22;5106;50.926;7.080;2022-07-10T07:54:06;16.70;71.50
10133;DHT22;5106;50.926;7.080;2022-07-10T07:56:32;16.70;71.70
10133;DHT22;5106;50.926;7.080;2022-07-10T07:58:58;16.70;70.00
10133;DHT22;5106;50.926;7.080;2022-07-10T08:01:24;16.60;69.90
10133;DHT22;5106;50.926;7.080;2022-07-10T08:03:50;16.70;70.50
10133;DHT22;5106;50.926;7.080;2022-07-10T08:06:16;16.70;70.90
10133;DHT22;5106;50.926;7.080;2022-07-10T08:08:41;16.70;70.70
10133;DHT22;5106;50.926;7.080;2022-07-10T08:11:07;16.80;70.90
10133;DHT22;5106;50.926;7.080;2022-07-10T08:13:33;16.90;70.80
10133;DHT22;5106;50.926;7.080;2022-07-10T08:15:59;16.90;71.00
10133;DHT22;5106;50.926;7.080;2022-07-10T08:18:25;16.90;70.70
10133;DHT22;5106;50.926;7.080;2022-07-10T08:20:51;16.90;70.70
10133;DHT22;5106;50.926;7.080;2022-07-10T08:23:16;16.80;70.20
10133;DHT22;5106;50.926;7.080;2022-07-10T08:25:42;16.80;70.20
10133;DHT22;5106;50.926;7.080;2022-07-10T08:28:07;16.80;71.80
10133;DHT22;5106;50.926;7.080;2022-07-10T08:30:35;16.80;71.40
10133;DHT22;5106;50.926;7.080;2022-07-10T08:33:01;16.90;71.50
10133;DHT22;5106;50.926;7.080;2022-07-10T08:35:26;17.00;70.40
10133;DHT22;5106;50.926;7.080;2022-07-10T08:37:52;17.10;70.70
10133;DHT22;5106;50.926;7.080;2022-07-10T08:40:21;17.20;71.20
10133;DHT22;5106;50.926;7.080;2022-07-10T08:42:47;17.30;71.00
10133;DHT22;5106;50.926;7.080;2022-07-10T08:45:14;17.30;70.40
10133;DHT22;5106;50.926;7.080;2022-07-10T08:47:41;17.30;70.70
10133;DHT22;5106;50.926;7.080;2022-07-10T08:50:22;17.30;70.60
10133;DHT22;5106;50.926;7.080;2022-07-10T08:52:52;17.30;71.00
10133;DHT22;5106;50.926;7.080;2022-07-10T08:55:25;17.30;70.30
10133;DHT22;5106;50.926;7.080;2022-07-10T08:57:51;17.30;70.60
10133;DHT22;5106;50.926;7.080;2022-07-10T09:00:18;17.30;70.70
10133;DHT22;5106;50.926;7.080;2022-07-10T09:02:43;17.30;70.50
10133;DHT22;5106;50.926;7.080;2022-07-10T09:05:09;17.20;71.10
10133;DHT22;5106;50.926;7.080;2022-07-10T09:07:35;17.10;71.60
10133;DHT22;5106;50.926;7.080;2022-07-10T09:10:07;17.10;72.30
10133;DHT22;5106;50.926;7.080;2022-07-10T09:12:55;17.10;72.40
10133;DHT22;5106;50.926;7.080;2022-07-10T09:15:27;17.10;72.60
10133;DHT22;5106;50.926;7.080;2022-07-10T09:18:00;17.10;73.50
10133;DHT22;5106;50.926;7.080;2022-07-10T09:20:36;17.10;72.90
10133;DHT22;5106;50.926;7.080;2022-07-10T09:23:28;17.10;73.60
10133;DHT22;5106;50.926;7.080;2022-07-10T09:25:53;17.10;72.70
10133;DHT22;5106;50.926;7.080;2022-07-10T09:28:21;17.00;73.30
10133;DHT22;5106;50.926;7.080;2022-07-10T09:30:47;17.00;73.30
10133;DHT22;5106;50.926;7.080;2022-07-10T09:33:27;17.00;74.00
10133;DHT22;5106;50.926;7.080;2022-07-10T09:38:54;17.10;74.00
10133;DHT22;5106;50.926;7.080;2022-07-10T09:41:30;17.20;74.20
10133;DHT22;5106;50.926;7.080;2022-07-10T09:43:57;17.20;74.00
10133;DHT22;5106;50.926;7.080;2022-07-10T09:46:25;17.30;73.70
10133;DHT22;5106;50.926;7.080;2022-07-10T09:49:13;17.20;74.10
10133;DHT22;5106;50.926;7.080;2022-07-10T09:51:43;17.10;73.70
10133;DHT22;5106;50.926;7.080;2022-07-10T09:54:11;17.10;73.60
10133;DHT22;5106;50.926;7.080;2022-07-10T09:56:45;17.10;74.20
10133;DHT22;5106;50.926;7.080;2022-07-10T09:59:19;17.10;74.50
10133;DHT22;5106;50.926;7.080;2022-07-10T10:01:50;17.10;74.20
10133;DHT22;5106;50.926;7.080;2022-07-10T10:04:17;17.20;74.90
10133;DHT22;5106;50.926;7.080;2022-07-10T10:06:46;17.20;74.20
10133;DHT22;5106;50.926;7.080;2022-07-10T10:09:34;17.20;74.20
10133;DHT22;5106;50.926;7.080;2022-07-10T10:12:11;17.20;74.10
10133;DHT22;5106;50.926;7.080;2022-07-10T10:14:39;17.10;73.80
10133;DHT22;5106;50.926;7.080;2022-07-10T10:17:05;17.10;74.10
10133;DHT22;5106;50.926;7.080;2022-07-10T10:19:33;17.00;74.20
10133;DHT22;5106;50.926;7.080;2022-07-10T10:22:18;17.00;74.50
10133;DHT22;5106;50.926;7.080;2022-07-10T10:24:45;17.10;74.40
10133;DHT22;5106;50.926;7.080;2022-07-10T10:27:12;17.00;74.50
10133;DHT22;5106;50.926;7.080;2022-07-10T10:29:38;17.00;75.00
10133;DHT22;5106;50.926;7.080;2022-07-10T10:32:05;17.10;74.80
10133;DHT22;5106;50.926;7.080;2022-07-10T10:39:53;17.00;75.00
10133;DHT22;5106;50.926;7.080;2022-07-10T10:42:33;16.90;75.10
10133;DHT22;5106;50.926;7.080;2022-07-10T10:45:31;16.90;75.30
10133;DHT22;5106;50.926;7.080;2022-07-10T10:50:50;16.90;76.80
10133;DHT22;5106;50.926;7.080;2022-07-10T10:58:41;16.90;76.50
10133;DHT22;5106;50.926;7.080;2022-07-10T11:09:30;16.80;76.80
10133;DHT22;5106;50.926;7.080;2022-07-10T11:14:24;16.80;76.30
10133;DHT22;5106;50.926;7.080;2022-07-10T11:16:54;16.80;76.60
10133;DHT22;5106;50.926;7.080;2022-07-10T11:19:30;16.80;76.50
10133;DHT22;5106;50.926;7.080;2022-07-10T11:25:08;17.00;76.60
10133;DHT22;5106;50.926;7.080;2022-07-10T11:28:06;17.00;77.10
10133;DHT22;5106;50.926;7.080;2022-07-10T11:30:50;17.10;76.70
10133;DHT22;5106;50.926;7.080;2022-07-10T11:33:16;17.10;76.60
10133;DHT22;5106;50.926;7.080;2022-07-10T11:35:50;17.20;77.00
10133;DHT22;5106;50.926;7.080;2022-07-10T11:40:46;17.20;76.50
10133;DHT22;5106;50.926;7.080;2022-07-10T11:43:12;17.20;76.10
10133;DHT22;5106;50.926;7.080;2022-07-10T11:45:43;17.20;76.90
10133;DHT22;5106;50.926;7.080;2022-07-10T11:48:19;17.20;77.40
10133;DHT22;5106;50.926;7.080;2022-07-10T11:50:46;17.20;76.90
10133;DHT22;5106;50.926;7.080;2022-07-10T11:53:12;17.20;76.10
10133;DHT22;5106;50.926;7.080;2022-07-10T11:55:38;17.20;76.40
10133;DHT22;5106;50.926;7.080;2022-07-10T11:58:32;17.10;77.00
10133;DHT22;5106;50.926;7.080;2022-07-10T12:01:02;17.10;77.40
10133;DHT22;5106;50.926;7.080;2022-07-10T12:03:31;17.10;77.00
10133;DHT22;5106;50.926;7.080;2022-07-10T12:06:04;17.10;77.60
10133;DHT22;5106;50.926;7.080;2022-07-10T12:08:45;17.10;77.00
10133;DHT22;5106;50.926;7.080;2022-07-10T12:11:16;17.10;78.10
10133;DHT22;5106;50.926;7.080;2022-07-10T12:13:43;17.10;77.60
10133;DHT22;5106;50.926;7.080;2022-07-10T12:16:08;17.20;77.30
10133;DHT22;5106;50.926;7.080;2022-07-10T12:18:34;17.20;77.40
10133;DHT22;5106;50.926;7.080;2022-07-10T12:21:00;17.10;77.60
10133;DHT22;5106;50.926;7.080;2022-07-10T12:23:28;17.10;77.90
10133;DHT22;5106;50.926;7.080;2022-07-10T12:25:55;17.10;78.10
10133;DHT22;5106;50.926;7.080;2022-07-10T12:28:21;17.10;78.20
10133;DHT22;5106;50.926;7.080;2022-07-10T12:30:48;17.10;78.40
10133;DHT22;5106;50.926;7.080;2022-07-10T12:33:21;17.00;79.40
10133;DHT22;5106;50.926;7.080;2022-07-10T12:35:53;16.80;80.10
10133;DHT22;5106;50.926;7.080;2022-07-10T12:40:48;16.70;81.70
10133;DHT22;5106;50.926;7.080;2022-07-10T12:43:27;16.60;81.70
10133;DHT22;5106;50.926;7.080;2022-07-10T12:48:38;16.70;82.00
10133;DHT22;5106;50.926;7.080;2022-07-10T12:51:24;16.70;82.20
10133;DHT22;5106;50.926;7.080;2022-07-10T12:53:54;16.70;81.90
10133;DHT22;5106;50.926;7.080;2022-07-10T12:56:37;16.70;82.10
10133;DHT22;5106;50.926;7.080;2022-07-10T12:59:14;16.70;82.40
10133;DHT22;5106;50.926;7.080;2022-07-10T13:01:45;16.70;82.40
10133;DHT22;5106;50.926;7.080;2022-07-10T13:04:54;16.70;82.40
10133;DHT22;5106;50.926;7.080;2022-07-10T13:07:28;16.80;82.20
10133;DHT22;5106;50.926;7.080;2022-07-10T13:09:53;16.90;82.30
10133;DHT22;5106;50.926;7.080;2022-07-10T13:12:19;17.00;82.40
10133;DHT22;5106;50.926;7.080;2022-07-10T13:14:44;17.20;82.00
10133;DHT22;5106;50.926;7.080;2022-07-10T13:17:10;17.20;81.40
10133;DHT22;5106;50.926;7.080;2022-07-10T13:19:36;17.20;81.40
10133;DHT22;5106;50.926;7.080;2022-07-10T13:22:01;17.30;81.40
10133;DHT22;5106;50.926;7.080;2022-07-10T13:24:27;17.30;81.50
10133;DHT22;5106;50.926;7.080;2022-07-10T13:26:56;17.30;81.00
10133;DHT22;5106;50.926;7.080;2022-07-10T13:29:22;17.30;81.20
10133;DHT22;5106;50.926;7.080;2022-07-10T13:31:48;17.30;81.10
10133;DHT22;5106;50.926;7.080;2022-07-10T13:34:17;17.20;81.00
10133;DHT22;5106;50.926;7.080;2022-07-10T13:36:42;17.20;80.60
10133;DHT22;5106;50.926;7.080;2022-07-10T13:39:08;17.20;81.00
10133;DHT22;5106;50.926;7.080;2022-07-10T13:41:34;17.20;81.40
10133;DHT22;5106;50.926;7.080;2022-07-10T13:44:00;17.20;82.00
10133;DHT22;5106;50.926;7.080;2022-07-10T13:46:27;17.20;82.20
10133;DHT22;5106;50.926;7.080;2022-07-10T13:48:52;17.20;82.40
10133;DHT22;5106;50.926;7.080;2022-07-10T13:51:18;17.20;82.50
10133;DHT22;5106;50.926;7.080;2022-07-10T13:53:43;17.30;82.50
10133;DHT22;5106;50.926;7.080;2022-07-10T13:56:09;17.30;82.50
10133;DHT22;5106;50.926;7.080;2022-07-10T13:58:35;17.30;82.30
10133;DHT22;5106;50.926;7.080;2022-07-10T14:01:02;17.40;82.20
10133;DHT22;5106;50.926;7.080;2022-07-10T14:03:30;17.40;81.80
10133;DHT22;5106;50.926;7.080;2022-07-10T14:05:56;17.50;81.60
10133;DHT22;5106;50.926;7.080;2022-07-10T14:08:21;17.60;81.50
10133;DHT22;5106;50.926;7.080;2022-07-10T14:10:47;17.80;80.80
10133;DHT22;5106;50.926;7.080;2022-07-10T14:13:13;18.00;80.40
10133;DHT22;5106;50.926;7.080;2022-07-10T14:15:39;18.20;80.40
10133;DHT22;5106;50.926;7.080;2022-07-10T14:18:06;18.50;80.00
10133;DHT22;5106;50.926;7.080;2022-07-10T14:20:32;18.70;79.60
10133;DHT22;5106;50.926;7.080;2022-07-10T14:23:17;18.90;79.00
10133;DHT22;5106;50.926;7.080;2022-07-10T14:25:44;19.00;77.60
10133;DHT22;5106;50.926;7.080;2022-07-10T14:28:09;19.10;77.40
10133;DHT22;5106;50.926;7.080;2022-07-10T14:30:35;19.20;76.10
10133;DHT22;5106;50.926;7.080;2022-07-10T14:33:01;19.30;75.50
10133;DHT22;5106;50.926;7.080;2022-07-10T14:35:26;19.30;75.60
10133;DHT22;5106;50.926;7.080;2022-07-10T14:37:52;19.20;75.90
10133;DHT22;5106;50.926;7.080;2022-07-10T14:40:17;19.00;75.70
10133;DHT22;5106;50.926;7.080;2022-07-10T14:42:43;19.00;76.20
10133;DHT22;5106;50.926;7.080;2022-07-10T14:45:09;18.90;76.70
10133;DHT22;5106;50.926;7.080;2022-07-10T14:47:35;19.00;76.40
10133;DHT22;5106;50.926;7.080;2022-07-10T14:50:00;19.00;76.40
10133;DHT22;5106;50.926;7.080;2022-07-10T14:52:26;19.00;75.50
10133;DHT22;5106;50.926;7.080;2022-07-10T14:54:54;19.00;75.50
10133;DHT22;5106;50.926;7.080;2022-07-10T14:57:20;19.00;75.80
10133;DHT22;5106;50.926;7.080;2022-07-10T14:59:46;19.00;75.70
10133;DHT22;5106;50.926;7.080;2022-07-10T15:02:11;19.00;74.90
10133;DHT22;5106;50.926;7.080;2022-07-10T15:04:37;19.10;74.70
10133;DHT22;5106;50.926;7.080;2022-07-10T15:07:03;19.10;75.10
10133;DHT22;5106;50.926;7.080;2022-07-10T15:09:29;19.10;75.40
10133;DHT22;5106;50.926;7.080;2022-07-10T15:11:54;19.10;75.10
10133;DHT22;5106;50.926;7.080;2022-07-10T15:14:20;19.00;74.50
10133;DHT22;5106;50.926;7.080;2022-07-10T15:16:46;18.90;74.60
10133;DHT22;5106;50.926;7.080;2022-07-10T15:19:12;18.80;75.30
10133;DHT22;5106;50.926;7.080;2022-07-10T15:21:38;18.70;76.20
10133;DHT22;5106;50.926;7.080;2022-07-10T15:24:04;18.70;76.50
10133;DHT22;5106;50.926;7.080;2022-07-10T15:26:29;18.60;76.80
10133;DHT22;5106;50.926;7.080;2022-07-10T15:28:55;18.60;76.90
10133;DHT22;5106;50.926;7.080;2022-07-10T15:31:23;18.50;76.90
10133;DHT22;5106;50.926;7.080;2022-07-10T15:33:49;18.50;77.00
10133;DHT22;5106;50.926;7.080;2022-07-10T15:36:15;18.50;76.80
10133;DHT22;5106;50.926;7.080;2022-07-10T15:38:40;18.50;76.50
10133;DHT22;5106;50.926;7.080;2022-07-10T15:41:06;18.50;76.30
10133;DHT22;5106;50.926;7.080;2022-07-10T15:43:32;18.50;76.70
10133;DHT22;5106;50.926;7.080;2022-07-10T15:45:58;18.40;76.90
10133;DHT22;5106;50.926;7.080;2022-07-10T15:48:24;18.40;76.80
10133;DHT22;5106;50.926;7.080;2022-07-10T15:50:50;18.40;77.10
10133;DHT22;5106;50.926;7.080;2022-07-10T15:53:15;18.40;77.80
10133;DHT22;5106;50.926;7.080;2022-07-10T15:55:41;18.40;78.10
10133;DHT22;5106;50.926;7.080;2022-07-10T15:58:06;18.40;78.10
10133;DHT22;5106;50.926;7.080;2022-07-10T16:00:33;18.40;78.90
10133;DHT22;5106;50.926;7.080;2022-07-10T16:02:59;18.40;79.10
10133;DHT22;5106;50.926;7.080;2022-07-10T16:05:25;18.40;78.80
10133;DHT22;5106;50.926;7.080;2022-07-10T16:07:51;18.50;78.70
10133;DHT22;5106;50.926;7.080;2022-07-10T16:10:17;18.60;78.30
10133;DHT22;5106;50.926;7.080;2022-07-10T16:12:43;18.60;78.20
10133;DHT22;5106;50.926;7.080;2022-07-10T16:15:09;18.70;78.00
10133;DHT22;5106;50.926;7.080;2022-07-10T16:17:34;18.70;77.80
10133;DHT22;5106;50.926;7.080;2022-07-10T16:20:00;18.80;77.70
10133;DHT22;5106;50.926;7.080;2022-07-10T16:22:26;18.80;77.80
10133;DHT22;5106;50.926;7.080;2022-07-10T16:24:51;18.80;77.90